sensor_id;sensor_type;location;lat;lon;timestamp;pressure;altitude;pressure_sealevel;temperature;humidity
64095;BME280;50353;51.420;5.682;2023-04-15T00:00:32;100470.38;;;10.38;61.91
64095;BME280;50353;51.420;5.682;2023-04-15T00:02:58;100480.09;;;9.96;62.80
64095;BME280;50353;51.420;5.682;2023-04-15T00:05:24;100475.03;;;9.78;62.96
64095;BME280;50353;51.420;5.682;2023-04-15T00:07:50;100476.13;;;10.03;62.52
64095;BME280;50353;51.420;5.682;2023-04-15T00:10:15;100475.31;;;10.15;61.77
64095;BME280;50353;51.420;5.682;2023-04-15T00:12:40;100468.38;;;10.14;61.96
64095;BME280;50353;51.420;5.682;2023-04-15T00:15:08;100471.03;;;10.00;62.13
64095;BME280;50353;51.420;5.682;2023-04-15T00:17:33;100466.34;;;9.91;62.93
64095;BME280;50353;51.420;5.682;2023-04-15T00:19:59;100465.91;;;10.11;62.83
64095;BME280;50353;51.420;5.682;2023-04-15T00:22:25;100472.31;;;9.66;63.38
64095;BME280;50353;51.420;5.682;2023-04-15T00:24:52;100457.91;;;9.57;63.63
64095;BME280;50353;51.420;5.682;2023-04-15T00:27:18;100469.69;;;9.37;64.42
64095;BME280;50353;51.420;5.682;2023-04-15T00:29:43;100461.28;;;9.16;65.35
64095;BME280;50353;51.420;5.682;2023-04-15T00:32:09;100465.25;;;9.08;66.95
64095;BME280;50353;51.420;5.682;2023-04-15T00:34:34;100468.91;;;9.63;64.51
64095;BME280;50353;51.420;5.682;2023-04-15T00:36:59;100463.19;;;9.42;64.41
64095;BME280;50353;51.420;5.682;2023-04-15T00:39:25;100463.66;;;9.49;64.51
64095;BME280;50353;51.420;5.682;2023-04-15T00:41:50;100459.59;;;9.43;64.90
64095;BME280;50353;51.420;5.682;2023-04-15T00:44:16;100463.53;;;9.79;63.83
64095;BME280;50353;51.420;5.682;2023-04-15T00:46:43;100462.50;;;9.68;63.70
64095;BME280;50353;51.420;5.682;2023-04-15T00:49:09;100464.81;;;9.45;65.11
64095;BME280;50353;51.420;5.682;2023-04-15T00:51:35;100458.25;;;9.79;64.31
64095;BME280;50353;51.420;5.682;2023-04-15T00:54:02;100456.66;;;9.91;63.44
64095;BME280;50353;51.420;5.682;2023-04-15T00:56:28;100460.56;;;9.42;64.25
64095;BME280;50353;51.420;5.682;2023-04-15T00:58:54;100458.50;;;9.47;64.50
64095;BME280;50353;51.420;5.682;2023-04-15T01:01:20;100465.16;;;9.39;65.05
64095;BME280;50353;51.420;5.682;2023-04-15T01:03:47;100459.31;;;9.19;65.43
64095;BME280;50353;51.420;5.682;2023-04-15T01:06:13;100463.84;;;9.17;65.77
64095;BME280;50353;51.420;5.682;2023-04-15T01:08:39;100460.75;;;9.25;65.47
64095;BME280;50353;51.420;5.682;2023-04-15T01:11:06;100467.63;;;9.27;65.52
64095;BME280;50353;51.420;5.682;2023-04-15T01:13:32;100471.66;;;9.19;66.08
64095;BME280;50353;51.420;5.682;2023-04-15T01:15:58;100462.13;;;9.16;65.82
64095;BME280;50353;51.420;5.682;2023-04-15T01:18:23;100464.22;;;9.40;64.73
64095;BME280;50353;51.420;5.682;2023-04-15T01:20:48;100459.81;;;9.26;65.36
64095;BME280;50353;51.420;5.682;2023-04-15T01:23:14;100467.16;;;8.76;67.24
64095;BME280;50353;51.420;5.682;2023-04-15T01:25:41;100453.19;;;9.19;66.31
64095;BME280;50353;51.420;5.682;2023-04-15T01:28:07;100462.22;;;9.00;66.92
64095;BME280;50353;51.420;5.682;2023-04-15T01:30:34;100462.38;;;8.83;68.25
64095;BME280;50353;51.420;5.682;2023-04-15T01:32:59;100457.59;;;9.04;66.29
64095;BME280;50353;51.420;5.682;2023-04-15T01:35:25;100461.44;;;8.98;66.41
64095;BME280;50353;51.420;5.682;2023-04-15T01:37:51;100457.53;;;9.05;65.93
64095;BME280;50353;51.420;5.682;2023-04-15T01:40:18;100454.50;;;9.11;65.80
64095;BME280;50353;51.420;5.682;2023-04-15T01:42:43;100456.75;;;9.03;66.90
64095;BME280;50353;51.420;5.682;2023-04-15T01:45:09;100456.47;;;8.93;66.22
64095;BME280;50353;51.420;5.682;2023-04-15T01:47:34;100455.59;;;8.93;66.25
64095;BME280;50353;51.420;5.682;2023-04-15T01:49:59;100458.63;;;9.01;66.07
64095;BME280;50353;51.420;5.682;2023-04-15T01:52:25;100462.72;;;9.07;65.94
64095;BME280;50353;51.420;5.682;2023-04-15T01:54:50;100453.75;;;9.09;65.75
64095;BME280;50353;51.420;5.682;2023-04-15T01:57:16;100451.28;;;8.92;66.43
64095;BME280;50353;51.420;5.682;2023-04-15T01:59:41;100458.97;;;8.80;66.75
64095;BME280;50353;51.420;5.682;2023-04-15T02:02:06;100461.31;;;8.55;67.52
64095;BME280;50353;51.420;5.682;2023-04-15T02:04:32;100459.56;;;8.39;68.35
64095;BME280;50353;51.420;5.682;2023-04-15T02:06:58;100466.53;;;8.24;69.29
64095;BME280;50353;51.420;5.682;2023-04-15T02:09:24;100461.88;;;8.45;68.50
64095;BME280;50353;51.420;5.682;2023-04-15T02:11:50;100467.41;;;8.25;69.60
64095;BME280;50353;51.420;5.682;2023-04-15T02:14:17;100462.28;;;8.38;69.26
64095;BME280;50353;51.420;5.682;2023-04-15T02:16:42;100455.41;;;8.82;67.61
64095;BME280;50353;51.420;5.682;2023-04-15T02:19:08;100462.78;;;8.60;68.27
64095;BME280;50353;51.420;5.682;2023-04-15T02:21:33;100465.84;;;8.37;69.00
64095;BME280;50353;51.420;5.682;2023-04-15T02:23:59;100456.56;;;8.61;68.08
64095;BME280;50353;51.420;5.682;2023-04-15T02:26:24;100468.75;;;8.48;68.56
64095;BME280;50353;51.420;5.682;2023-04-15T02:28:50;100468.00;;;8.76;67.36
64095;BME280;50353;51.420;5.682;2023-04-15T02:31:15;100471.22;;;8.35;68.77
64095;BME280;50353;51.420;5.682;2023-04-15T02:33:41;100473.00;;;8.19;69.45
64095;BME280;50353;51.420;5.682;2023-04-15T02:36:06;100476.56;;;8.50;68.85
64095;BME280;50353;51.420;5.682;2023-04-15T02:38:32;100488.22;;;8.13;69.56
64095;BME280;50353;51.420;5.682;2023-04-15T02:40:57;100481.69;;;8.21;69.54
64095;BME280;50353;51.420;5.682;2023-04-15T02:43:22;100489.31;;;8.25;69.45
64095;BME280;50353;51.420;5.682;2023-04-15T02:45:48;100490.69;;;8.17;70.35
64095;BME280;50353;51.420;5.682;2023-04-15T02:48:13;100489.38;;;8.56;69.04
64095;BME280;50353;51.420;5.682;2023-04-15T02:50:39;100494.22;;;8.32;70.12
64095;BME280;50353;51.420;5.682;2023-04-15T02:53:05;100493.53;;;8.60;68.67
64095;BME280;50353;51.420;5.682;2023-04-15T02:55:31;100501.50;;;8.42;69.30
64095;BME280;50353;51.420;5.682;2023-04-15T02:57:56;100502.28;;;8.44;68.93
64095;BME280;50353;51.420;5.682;2023-04-15T03:00:24;100508.59;;;8.10;68.50
64095;BME280;50353;51.420;5.682;2023-04-15T03:02:50;100506.56;;;7.99;71.09
64095;BME280;50353;51.420;5.682;2023-04-15T03:05:20;100500.53;;;7.97;70.57
64095;BME280;50353;51.420;5.682;2023-04-15T03:07:48;100504.94;;;8.12;71.43
64095;BME280;50353;51.420;5.682;2023-04-15T03:10:14;100502.31;;;7.97;71.82
64095;BME280;50353;51.420;5.682;2023-04-15T03:12:39;100502.47;;;8.25;71.28
64095;BME280;50353;51.420;5.682;2023-04-15T03:15:05;100508.78;;;7.91;73.11
64095;BME280;50353;51.420;5.682;2023-04-15T03:17:31;100502.78;;;7.71;74.00
64095;BME280;50353;51.420;5.682;2023-04-15T03:19:56;100506.81;;;7.78;73.65
64095;BME280;50353;51.420;5.682;2023-04-15T03:22:21;100494.34;;;7.49;73.99
64095;BME280;50353;51.420;5.682;2023-04-15T03:24:46;100500.66;;;7.28;76.06
64095;BME280;50353;51.420;5.682;2023-04-15T03:27:12;100497.69;;;7.35;76.09
64095;BME280;50353;51.420;5.682;2023-04-15T03:29:37;100505.63;;;7.84;74.34
64095;BME280;50353;51.420;5.682;2023-04-15T03:32:03;100510.38;;;8.09;73.19
64095;BME280;50353;51.420;5.682;2023-04-15T03:34:28;100508.03;;;7.55;73.94
64095;BME280;50353;51.420;5.682;2023-04-15T03:36:54;100503.28;;;7.62;74.65
64095;BME280;50353;51.420;5.682;2023-04-15T03:39:20;100514.94;;;7.74;74.58
64095;BME280;50353;51.420;5.682;2023-04-15T03:41:45;100512.94;;;7.95;73.93
64095;BME280;50353;51.420;5.682;2023-04-15T03:44:11;100512.25;;;7.91;74.02
64095;BME280;50353;51.420;5.682;2023-04-15T03:46:36;100514.47;;;7.99;72.90
64095;BME280;50353;51.420;5.682;2023-04-15T03:49:01;100525.41;;;8.07;72.62
64095;BME280;50353;51.420;5.682;2023-04-15T03:51:26;100531.06;;;7.84;72.99
64095;BME280;50353;51.420;5.682;2023-04-15T03:53:52;100530.03;;;7.70;73.35
64095;BME280;50353;51.420;5.682;2023-04-15T03:56:17;100542.41;;;8.02;72.85
64095;BME280;50353;51.420;5.682;2023-04-15T03:58:43;100539.13;;;7.81;73.53
64095;BME280;50353;51.420;5.682;2023-04-15T04:01:08;100542.91;;;7.59;74.00
64095;BME280;50353;51.420;5.682;2023-04-15T04:03:33;100547.06;;;7.30;74.78
64095;BME280;50353;51.420;5.682;2023-04-15T04:05:59;100544.91;;;7.54;74.55
64095;BME280;50353;51.420;5.682;2023-04-15T04:08:24;100549.72;;;7.45;74.36
64095;BME280;50353;51.420;5.682;2023-04-15T04:10:49;100555.31;;;7.22;75.64
64095;BME280;50353;51.420;5.682;2023-04-15T04:13:15;100555.31;;;7.22;76.21
64095;BME280;50353;51.420;5.682;2023-04-15T04:15:40;100558.78;;;7.40;75.47
64095;BME280;50353;51.420;5.682;2023-04-15T04:18:06;100559.94;;;7.34;76.57
64095;BME280;50353;51.420;5.682;2023-04-15T04:20:31;100561.53;;;7.72;74.67
64095;BME280;50353;51.420;5.682;2023-04-15T04:22:57;100569.38;;;7.56;75.61
64095;BME280;50353;51.420;5.682;2023-04-15T04:25:22;100567.28;;;7.10;77.88
64095;BME280;50353;51.420;5.682;2023-04-15T04:27:48;100570.72;;;7.12;77.70
64095;BME280;50353;51.420;5.682;2023-04-15T04:30:14;100578.81;;;6.90;77.13
64095;BME280;50353;51.420;5.682;2023-04-15T04:32:39;100582.84;;;6.97;78.12
64095;BME280;50353;51.420;5.682;2023-04-15T04:35:05;100584.75;;;6.93;77.92
64095;BME280;50353;51.420;5.682;2023-04-15T04:37:31;100580.22;;;7.32;76.70
64095;BME280;50353;51.420;5.682;2023-04-15T04:39:56;100586.09;;;7.20;77.29
64095;BME280;50353;51.420;5.682;2023-04-15T04:42:21;100591.59;;;7.33;77.30
64095;BME280;50353;51.420;5.682;2023-04-15T04:44:47;100594.84;;;7.20;77.97
64095;BME280;50353;51.420;5.682;2023-04-15T04:47:12;100599.22;;;7.20;77.65
64095;BME280;50353;51.420;5.682;2023-04-15T04:49:38;100597.84;;;7.13;77.68
64095;BME280;50353;51.420;5.682;2023-04-15T04:52:03;100599.19;;;7.21;77.00
64095;BME280;50353;51.420;5.682;2023-04-15T04:54:29;100598.31;;;7.21;77.93
64095;BME280;50353;51.420;5.682;2023-04-15T04:56:55;100609.44;;;7.08;78.22
64095;BME280;50353;51.420;5.682;2023-04-15T04:59:22;100603.19;;;7.28;77.65
64095;BME280;50353;51.420;5.682;2023-04-15T05:01:47;100612.97;;;6.90;79.03
64095;BME280;50353;51.420;5.682;2023-04-15T05:04:12;100608.34;;;7.13;79.32
64095;BME280;50353;51.420;5.682;2023-04-15T05:06:38;100614.69;;;7.26;79.03
64095;BME280;50353;51.420;5.682;2023-04-15T05:09:03;100622.75;;;7.23;78.62
64095;BME280;50353;51.420;5.682;2023-04-15T05:11:28;100629.97;;;7.00;79.65
64095;BME280;50353;51.420;5.682;2023-04-15T05:13:54;100631.56;;;7.22;78.99
64095;BME280;50353;51.420;5.682;2023-04-15T05:16:19;100636.91;;;6.84;80.62
64095;BME280;50353;51.420;5.682;2023-04-15T05:18:45;100644.13;;;6.98;80.73
64095;BME280;50353;51.420;5.682;2023-04-15T05:21:10;100643.59;;;7.08;80.45
64095;BME280;50353;51.420;5.682;2023-04-15T05:23:35;100641.88;;;7.07;80.01
64095;BME280;50353;51.420;5.682;2023-04-15T05:26:02;100640.69;;;7.67;77.92
64095;BME280;50353;51.420;5.682;2023-04-15T05:28:27;100653.78;;;7.51;79.29
64095;BME280;50353;51.420;5.682;2023-04-15T05:30:52;100653.19;;;7.97;77.31
64095;BME280;50353;51.420;5.682;2023-04-15T05:33:17;100651.78;;;8.07;77.27
64095;BME280;50353;51.420;5.682;2023-04-15T05:35:43;100654.41;;;8.07;77.49
64095;BME280;50353;51.420;5.682;2023-04-15T05:38:08;100665.69;;;7.76;78.27
64095;BME280;50353;51.420;5.682;2023-04-15T05:40:33;100665.97;;;7.87;79.00
64095;BME280;50353;51.420;5.682;2023-04-15T05:42:59;100667.41;;;8.10;77.83
64095;BME280;50353;51.420;5.682;2023-04-15T05:45:24;100666.72;;;7.89;78.17
64095;BME280;50353;51.420;5.682;2023-04-15T05:47:49;100673.41;;;7.61;79.78
64095;BME280;50353;51.420;5.682;2023-04-15T05:50:18;100674.88;;;8.36;77.36
64095;BME280;50353;51.420;5.682;2023-04-15T05:52:43;100677.19;;;8.24;77.88
64095;BME280;50353;51.420;5.682;2023-04-15T05:55:09;100687.53;;;8.11;77.83
64095;BME280;50353;51.420;5.682;2023-04-15T05:57:35;100685.34;;;8.20;78.29
64095;BME280;50353;51.420;5.682;2023-04-15T06:00:00;100692.50;;;8.00;79.44
64095;BME280;50353;51.420;5.682;2023-04-15T06:02:25;100693.44;;;8.17;79.42
64095;BME280;50353;51.420;5.682;2023-04-15T06:04:51;100691.81;;;8.14;79.68
64095;BME280;50353;51.420;5.682;2023-04-15T06:07:17;100689.53;;;8.24;78.48
64095;BME280;50353;51.420;5.682;2023-04-15T06:09:43;100704.19;;;8.12;79.38
64095;BME280;50353;51.420;5.682;2023-04-15T06:12:09;100704.59;;;8.38;78.92
64095;BME280;50353;51.420;5.682;2023-04-15T06:14:37;100704.16;;;8.29;79.47
64095;BME280;50353;51.420;5.682;2023-04-15T06:17:02;100710.44;;;8.60;78.07
64095;BME280;50353;51.420;5.682;2023-04-15T06:19:28;100709.72;;;8.23;79.75
64095;BME280;50353;51.420;5.682;2023-04-15T06:21:53;100722.53;;;8.65;78.13
64095;BME280;50353;51.420;5.682;2023-04-15T06:24:18;100735.66;;;8.31;79.64
64095;BME280;50353;51.420;5.682;2023-04-15T06:26:44;100724.47;;;8.43;79.82
64095;BME280;50353;51.420;5.682;2023-04-15T06:29:09;100740.28;;;8.43;79.91
64095;BME280;50353;51.420;5.682;2023-04-15T06:31:35;100745.28;;;8.50;79.42
64095;BME280;50353;51.420;5.682;2023-04-15T06:34:00;100741.19;;;8.60;78.78
64095;BME280;50353;51.420;5.682;2023-04-15T06:36:25;100748.72;;;8.17;81.22
64095;BME280;50353;51.420;5.682;2023-04-15T06:38:51;100754.31;;;8.77;79.08
64095;BME280;50353;51.420;5.682;2023-04-15T06:41:17;100760.44;;;8.62;78.85
64095;BME280;50353;51.420;5.682;2023-04-15T06:43:42;100767.63;;;8.92;78.20
64095;BME280;50353;51.420;5.682;2023-04-15T06:46:08;100767.63;;;9.24;77.44
64095;BME280;50353;51.420;5.682;2023-04-15T06:48:35;100773.13;;;9.35;76.56
64095;BME280;50353;51.420;5.682;2023-04-15T06:51:00;100777.06;;;9.28;77.82
64095;BME280;50353;51.420;5.682;2023-04-15T06:53:25;100779.50;;;9.47;76.89
64095;BME280;50353;51.420;5.682;2023-04-15T06:55:53;100791.59;;;9.51;76.36
64095;BME280;50353;51.420;5.682;2023-04-15T06:58:19;100788.63;;;9.57;76.61
64095;BME280;50353;51.420;5.682;2023-04-15T07:00:45;100792.56;;;10.11;73.39
64095;BME280;50353;51.420;5.682;2023-04-15T07:03:11;100802.44;;;9.93;74.95
64095;BME280;50353;51.420;5.682;2023-04-15T07:05:37;100806.06;;;10.37;73.12
64095;BME280;50353;51.420;5.682;2023-04-15T07:08:03;100803.03;;;10.43;73.01
64095;BME280;50353;51.420;5.682;2023-04-15T07:10:28;100815.56;;;10.09;74.09
64095;BME280;50353;51.420;5.682;2023-04-15T07:12:54;100809.19;;;10.43;75.14
64095;BME280;50353;51.420;5.682;2023-04-15T07:15:19;100822.00;;;10.49;72.75
64095;BME280;50353;51.420;5.682;2023-04-15T07:17:44;100821.09;;;10.65;72.03
64095;BME280;50353;51.420;5.682;2023-04-15T07:20:10;100824.38;;;10.24;73.84
64095;BME280;50353;51.420;5.682;2023-04-15T07:22:37;100831.66;;;10.20;75.56
64095;BME280;50353;51.420;5.682;2023-04-15T07:25:02;100835.13;;;10.37;75.63
64095;BME280;50353;51.420;5.682;2023-04-15T07:27:28;100843.53;;;10.43;74.01
64095;BME280;50353;51.420;5.682;2023-04-15T07:29:53;100848.03;;;10.41;74.35
64095;BME280;50353;51.420;5.682;2023-04-15T07:32:18;100854.69;;;10.48;74.33
64095;BME280;50353;51.420;5.682;2023-04-15T07:34:44;100849.31;;;10.50;73.56
64095;BME280;50353;51.420;5.682;2023-04-15T07:37:09;100849.50;;;11.33;72.29
64095;BME280;50353;51.420;5.682;2023-04-15T07:39:35;100851.59;;;10.99;72.11
64095;BME280;50353;51.420;5.682;2023-04-15T07:42:01;100858.94;;;11.23;71.85
64095;BME280;50353;51.420;5.682;2023-04-15T07:44:27;100853.78;;;11.07;71.09
64095;BME280;50353;51.420;5.682;2023-04-15T07:46:53;100858.25;;;11.48;70.06
64095;BME280;50353;51.420;5.682;2023-04-15T07:49:18;100863.88;;;11.71;70.32
64095;BME280;50353;51.420;5.682;2023-04-15T07:51:45;100860.78;;;11.92;69.85
64095;BME280;50353;51.420;5.682;2023-04-15T07:54:10;100868.09;;;12.15;67.03
64095;BME280;50353;51.420;5.682;2023-04-15T07:56:36;100865.19;;;12.59;67.02
64095;BME280;50353;51.420;5.682;2023-04-15T07:59:01;100869.81;;;12.29;66.43
64095;BME280;50353;51.420;5.682;2023-04-15T08:01:28;100886.59;;;12.03;66.91
64095;BME280;50353;51.420;5.682;2023-04-15T08:03:54;100884.31;;;12.24;65.91
64095;BME280;50353;51.420;5.682;2023-04-15T08:06:20;100881.00;;;12.73;66.24
64095;BME280;50353;51.420;5.682;2023-04-15T08:08:45;100880.59;;;13.05;64.20
64095;BME280;50353;51.420;5.682;2023-04-15T08:11:11;100890.94;;;13.34;62.73
64095;BME280;50353;51.420;5.682;2023-04-15T08:13:37;100887.53;;;13.82;61.86
64095;BME280;50353;51.420;5.682;2023-04-15T08:16:22;100885.84;;;13.57;59.75
64095;BME280;50353;51.420;5.682;2023-04-15T08:18:49;100894.69;;;13.81;57.88
64095;BME280;50353;51.420;5.682;2023-04-15T08:21:16;100899.66;;;13.36;59.60
64095;BME280;50353;51.420;5.682;2023-04-15T08:23:42;100899.63;;;13.86;59.33
64095;BME280;50353;51.420;5.682;2023-04-15T08:26:07;100903.72;;;13.79;59.27
64095;BME280;50353;51.420;5.682;2023-04-15T08:28:33;100904.16;;;13.97;58.42
64095;BME280;50353;51.420;5.682;2023-04-15T08:30:59;100910.59;;;14.06;58.70
64095;BME280;50353;51.420;5.682;2023-04-15T08:33:24;100909.56;;;13.71;59.16
64095;BME280;50353;51.420;5.682;2023-04-15T08:35:50;100921.69;;;13.99;58.63
64095;BME280;50353;51.420;5.682;2023-04-15T08:38:15;100933.53;;;13.32;58.79
64095;BME280;50353;51.420;5.682;2023-04-15T08:40:43;100937.56;;;12.87;61.18
64095;BME280;50353;51.420;5.682;2023-04-15T08:43:12;100932.16;;;13.01;61.70
64095;BME280;50353;51.420;5.682;2023-04-15T08:45:40;100942.66;;;13.15;61.75
64095;BME280;50353;51.420;5.682;2023-04-15T08:48:06;100945.22;;;13.17;62.88
64095;BME280;50353;51.420;5.682;2023-04-15T08:50:33;100952.22;;;13.05;60.11
64095;BME280;50353;51.420;5.682;2023-04-15T08:52:59;100955.50;;;13.60;59.44
64095;BME280;50353;51.420;5.682;2023-04-15T08:55:31;100953.97;;;13.82;58.73
64095;BME280;50353;51.420;5.682;2023-04-15T08:57:58;100957.09;;;14.00;57.17
64095;BME280;50353;51.420;5.682;2023-04-15T09:00:25;100962.69;;;14.32;57.95
64095;BME280;50353;51.420;5.682;2023-04-15T09:02:51;100952.53;;;14.02;56.97
64095;BME280;50353;51.420;5.682;2023-04-15T09:05:16;100962.94;;;14.05;57.04
64095;BME280;50353;51.420;5.682;2023-04-15T09:07:41;100970.22;;;14.14;56.71
64095;BME280;50353;51.420;5.682;2023-04-15T09:10:08;100977.56;;;13.86;57.83
64095;BME280;50353;51.420;5.682;2023-04-15T09:12:34;100972.44;;;14.20;58.07
64095;BME280;50353;51.420;5.682;2023-04-15T09:15:01;100987.03;;;14.39;56.93
64095;BME280;50353;51.420;5.682;2023-04-15T09:17:27;100984.66;;;14.72;56.17
64095;BME280;50353;51.420;5.682;2023-04-15T09:20:12;100985.50;;;15.30;54.75
64095;BME280;50353;51.420;5.682;2023-04-15T09:22:39;100982.47;;;15.12;57.17
64095;BME280;50353;51.420;5.682;2023-04-15T09:25:24;100993.38;;;15.43;53.04
64095;BME280;50353;51.420;5.682;2023-04-15T09:27:52;100990.50;;;15.46;52.51
64095;BME280;50353;51.420;5.682;2023-04-15T09:30:18;100998.25;;;15.38;53.35
64095;BME280;50353;51.420;5.682;2023-04-15T09:32:48;100992.19;;;15.93;53.44
64095;BME280;50353;51.420;5.682;2023-04-15T09:35:14;101011.94;;;15.56;53.23
64095;BME280;50353;51.420;5.682;2023-04-15T09:37:40;101005.28;;;15.50;52.20
64095;BME280;50353;51.420;5.682;2023-04-15T09:40:05;100999.69;;;15.42;53.40
64095;BME280;50353;51.420;5.682;2023-04-15T09:42:32;101013.00;;;15.65;53.13
64095;BME280;50353;51.420;5.682;2023-04-15T09:45:08;101016.16;;;15.70;53.56
64095;BME280;50353;51.420;5.682;2023-04-15T09:47:34;101025.47;;;15.42;50.30
64095;BME280;50353;51.420;5.682;2023-04-15T09:50:00;101023.56;;;15.89;53.27
64095;BME280;50353;51.420;5.682;2023-04-15T09:52:26;101026.13;;;15.91;50.61
64095;BME280;50353;51.420;5.682;2023-04-15T09:54:53;101026.59;;;16.07;52.21
64095;BME280;50353;51.420;5.682;2023-04-15T09:57:20;101023.19;;;16.16;52.30
64095;BME280;50353;51.420;5.682;2023-04-15T09:59:46;101034.81;;;16.15;50.61
64095;BME280;50353;51.420;5.682;2023-04-15T10:02:12;101041.63;;;15.85;50.10
64095;BME280;50353;51.420;5.682;2023-04-15T10:04:39;101048.88;;;16.17;52.87
64095;BME280;50353;51.420;5.682;2023-04-15T10:07:07;101054.13;;;15.85;50.05
64095;BME280;50353;51.420;5.682;2023-04-15T10:09:35;101049.75;;;15.95;50.15
64095;BME280;50353;51.420;5.682;2023-04-15T10:12:04;101036.81;;;16.34;51.28
64095;BME280;50353;51.420;5.682;2023-04-15T10:14:34;101046.16;;;16.40;50.06
64095;BME280;50353;51.420;5.682;2023-04-15T10:17:04;101046.47;;;16.14;50.78
64095;BME280;50353;51.420;5.682;2023-04-15T10:19:33;101046.19;;;16.29;49.30
64095;BME280;50353;51.420;5.682;2023-04-15T10:22:00;101058.22;;;15.78;49.71
64095;BME280;50353;51.420;5.682;2023-04-15T10:24:27;101051.09;;;16.01;50.31
64095;BME280;50353;51.420;5.682;2023-04-15T10:26:53;101050.31;;;16.33;52.52
64095;BME280;50353;51.420;5.682;2023-04-15T10:29:19;101051.00;;;16.46;50.05
64095;BME280;50353;51.420;5.682;2023-04-15T10:31:45;101057.38;;;16.22;48.00
64095;BME280;50353;51.420;5.682;2023-04-15T10:34:11;101052.63;;;16.15;51.05
64095;BME280;50353;51.420;5.682;2023-04-15T10:36:37;101049.91;;;16.49;48.44
64095;BME280;50353;51.420;5.682;2023-04-15T10:42:17;101068.13;;;16.32;47.78
64095;BME280;50353;51.420;5.682;2023-04-15T10:44:48;101062.81;;;16.32;48.05
64095;BME280;50353;51.420;5.682;2023-04-15T10:47:18;101068.72;;;15.57;49.74
64095;BME280;50353;51.420;5.682;2023-04-15T10:49:46;101067.31;;;15.86;51.50
64095;BME280;50353;51.420;5.682;2023-04-15T10:52:13;101061.72;;;16.23;52.54
64095;BME280;50353;51.420;5.682;2023-04-15T10:54:39;101073.94;;;16.37;48.72
64095;BME280;50353;51.420;5.682;2023-04-15T11:02:46;101074.06;;;16.36;49.82
64095;BME280;50353;51.420;5.682;2023-04-15T11:05:16;101068.84;;;16.46;48.70
64095;BME280;50353;51.420;5.682;2023-04-15T11:07:55;101077.72;;;16.35;48.48
64095;BME280;50353;51.420;5.682;2023-04-15T11:13:01;101074.84;;;17.24;45.77
64095;BME280;50353;51.420;5.682;2023-04-15T11:15:29;101074.63;;;16.62;46.71
64095;BME280;50353;51.420;5.682;2023-04-15T11:20:35;101094.41;;;16.48;46.69
64095;BME280;50353;51.420;5.682;2023-04-15T11:23:01;101090.63;;;16.51;48.55
64095;BME280;50353;51.420;5.682;2023-04-15T11:25:28;101085.28;;;16.62;46.87
64095;BME280;50353;51.420;5.682;2023-04-15T11:27:54;101091.06;;;16.12;48.62
64095;BME280;50353;51.420;5.682;2023-04-15T11:30:22;101091.28;;;16.43;48.09
64095;BME280;50353;51.420;5.682;2023-04-15T11:32:51;101086.28;;;16.38;48.36
64095;BME280;50353;51.420;5.682;2023-04-15T11:35:17;101085.06;;;16.54;48.25
64095;BME280;50353;51.420;5.682;2023-04-15T11:37:46;101094.94;;;16.08;49.69
64095;BME280;50353;51.420;5.682;2023-04-15T11:40:12;101101.00;;;15.87;50.58
64095;BME280;50353;51.420;5.682;2023-04-15T11:42:39;101109.34;;;16.17;49.21
64095;BME280;50353;51.420;5.682;2023-04-15T11:45:10;101107.91;;;16.01;50.91
64095;BME280;50353;51.420;5.682;2023-04-15T11:47:39;101111.06;;;16.07;50.99
64095;BME280;50353;51.420;5.682;2023-04-15T11:50:16;101105.50;;;16.76;49.59
64095;BME280;50353;51.420;5.682;2023-04-15T11:52:57;101111.34;;;16.70;50.27
64095;BME280;50353;51.420;5.682;2023-04-15T11:55:24;101124.63;;;16.26;49.03
64095;BME280;50353;51.420;5.682;2023-04-15T11:58:04;101120.47;;;15.77;49.72
64095;BME280;50353;51.420;5.682;2023-04-15T12:00:29;101120.53;;;16.11;50.17
64095;BME280;50353;51.420;5.682;2023-04-15T12:03:11;101118.72;;;15.88;50.66
64095;BME280;50353;51.420;5.682;2023-04-15T12:06:06;101124.34;;;16.63;48.99
64095;BME280;50353;51.420;5.682;2023-04-15T12:11:14;101129.38;;;16.34;49.77
64095;BME280;50353;51.420;5.682;2023-04-15T12:13:43;101126.94;;;16.42;47.78
64095;BME280;50353;51.420;5.682;2023-04-15T12:16:08;101119.34;;;16.81;46.90
64095;BME280;50353;51.420;5.682;2023-04-15T12:18:37;101120.69;;;17.08;46.62
64095;BME280;50353;51.420;5.682;2023-04-15T12:21:09;101130.25;;;16.89;46.84
64095;BME280;50353;51.420;5.682;2023-04-15T12:23:46;101140.09;;;17.43;47.15
64095;BME280;50353;51.420;5.682;2023-04-15T12:26:12;101134.72;;;16.89;46.77
64095;BME280;50353;51.420;5.682;2023-04-15T12:28:39;101133.44;;;17.16;47.34
64095;BME280;50353;51.420;5.682;2023-04-15T12:31:06;101142.75;;;16.78;46.99
64095;BME280;50353;51.420;5.682;2023-04-15T12:33:33;101150.06;;;17.19;47.18
64095;BME280;50353;51.420;5.682;2023-04-15T12:35:58;101145.88;;;17.48;46.72
64095;BME280;50353;51.420;5.682;2023-04-15T12:38:24;101149.94;;;17.10;46.73
64095;BME280;50353;51.420;5.682;2023-04-15T12:40:49;101151.06;;;17.61;45.84
64095;BME280;50353;51.420;5.682;2023-04-15T12:43:15;101158.16;;;17.71;46.90
64095;BME280;50353;51.420;5.682;2023-04-15T12:45:41;101153.66;;;16.86;46.69
64095;BME280;50353;51.420;5.682;2023-04-15T12:48:06;101153.00;;;17.05;47.99
64095;BME280;50353;51.420;5.682;2023-04-15T12:50:33;101158.19;;;16.63;47.36
64095;BME280;50353;51.420;5.682;2023-04-15T12:52:59;101175.44;;;16.13;48.63
64095;BME280;50353;51.420;5.682;2023-04-15T12:55:24;101169.88;;;16.05;50.97
64095;BME280;50353;51.420;5.682;2023-04-15T12:57:49;101175.44;;;16.13;49.36
64095;BME280;50353;51.420;5.682;2023-04-15T13:00:15;101165.25;;;16.30;50.15
64095;BME280;50353;51.420;5.682;2023-04-15T13:02:42;101164.97;;;16.89;48.33
64095;BME280;50353;51.420;5.682;2023-04-15T13:05:08;101166.91;;;17.52;47.91
64095;BME280;50353;51.420;5.682;2023-04-15T13:07:33;101167.09;;;18.03;49.72